Time;durP1;ratioP1;P1;durP2;ratioP2;P2;SDS_P1;SDS_P2;PMS_P1;PMS_P2;Temp;Humidity;BMP_temperature;BMP_pressure;BME280_temperature;BME280_humidity;BME280_pressure;Samples;Min_cycle;Max_cycle;Signal;HPM_P1;HPM_P2
2022/07/20 00:01:05;;;;;;;5.42;4.83;;;28.80;99.90;;;;;;1894631;75;21085;-86
2022/07/20 00:03:56;;;;;;;4.75;4.33;;;28.80;99.90;;;;;;1873259;76;21557;-88
2022/07/20 00:06:47;;;;;;;5.55;5.05;;;28.70;99.90;;;;;;1886319;75;21085;-87
2022/07/20 00:12:48;;;;;;;5.62;5.12;;;28.70;99.90;;;;;;1876737;75;21141;-87
2022/07/20 00:15:42;;;;;;;6.00;5.42;;;28.60;99.90;;;;;;1894461;75;21607;-87
2022/07/20 00:18:34;;;;;;;5.15;4.75;;;28.50;99.90;;;;;;1896278;75;21127;-87
2022/07/20 00:21:29;;;;;;;6.00;5.40;;;28.50;99.90;;;;;;1888036;75;21184;-87
2022/07/20 00:24:20;;;;;;;5.42;4.92;;;28.50;99.90;;;;;;1875004;75;21127;-87
2022/07/20 00:27:11;;;;;;;5.42;4.83;;;28.40;99.90;;;;;;1894206;75;21059;-88
2022/07/20 00:30:04;;;;;;;5.53;5.12;;;28.40;99.90;;;;;;1893620;75;21168;-87
2022/07/20 00:32:55;;;;;;;6.60;5.10;;;28.40;99.90;;;;;;1892181;74;21106;-87
2022/07/20 00:35:47;;;;;;;5.80;4.97;;;28.40;99.90;;;;;;1887966;74;21119;-87
2022/07/20 00:38:38;;;;;;;5.28;4.78;;;28.30;99.90;;;;;;1890100;75;21628;-87
2022/07/20 00:41:30;;;;;;;6.58;5.40;;;28.30;99.90;;;;;;1902689;75;21106;-87
2022/07/20 00:44:22;;;;;;;5.50;5.00;;;28.20;99.90;;;;;;1883399;75;21088;-88
2022/07/20 00:47:14;;;;;;;5.67;5.17;;;28.20;99.90;;;;;;1888073;75;21146;-87
2022/07/20 00:50:07;;;;;;;6.28;5.00;;;28.20;99.90;;;;;;1898574;75;21091;-87
2022/07/20 00:53:00;;;;;;;5.83;5.33;;;28.10;99.90;;;;;;1874939;75;21100;-87
2022/07/20 00:55:52;;;;;;;5.87;5.25;;;28.20;99.90;;;;;;1885237;75;21094;-87
2022/07/20 00:58:45;;;;;;;6.03;5.15;;;28.30;99.90;;;;;;1899533;75;21060;-88
2022/07/20 01:01:39;;;;;;;6.47;4.87;;;28.20;99.90;;;;;;1876396;75;21052;-87
2022/07/20 01:04:30;;;;;;;5.25;4.80;;;28.20;99.90;;;;;;1901819;75;21081;-87
2022/07/20 01:07:22;;;;;;;5.78;5.10;;;28.10;99.90;;;;;;1883014;75;21216;-87
2022/07/20 01:10:15;;;;;;;5.62;5.10;;;28.10;99.90;;;;;;1887699;75;21520;-88
2022/07/20 01:13:06;;;;;;;5.40;5.00;;;28.00;99.90;;;;;;1888086;75;21079;-87
2022/07/20 01:15:58;;;;;;;5.78;5.12;;;27.90;99.90;;;;;;1892627;75;21165;-88
2022/07/20 01:18:49;;;;;;;5.67;5.28;;;27.90;99.90;;;;;;1882334;75;21503;-87
2022/07/20 01:21:41;;;;;;;5.67;5.12;;;27.90;99.90;;;;;;1893539;75;21135;-87
2022/07/20 01:24:33;;;;;;;5.58;5.08;;;27.90;99.90;;;;;;1887142;75;21110;-87
2022/07/20 01:27:24;;;;;;;6.40;5.30;;;27.90;99.90;;;;;;1884910;75;21138;-87
2022/07/20 01:30:17;;;;;;;5.62;5.12;;;27.90;99.90;;;;;;1891822;75;21214;-87
2022/07/20 01:33:12;;;;;;;6.30;5.80;;;27.90;99.90;;;;;;1904757;73;21177;-87
2022/07/20 01:36:04;;;;;;;4.92;4.53;;;28.00;99.90;;;;;;1907664;73;21180;-87
2022/07/20 01:38:56;;;;;;;8.00;5.08;;;27.90;99.90;;;;;;1886394;75;21117;-87
2022/07/20 01:41:52;;;;;;;6.70;5.42;;;27.80;99.90;;;;;;1876012;75;21102;-88
2022/07/20 01:44:40;;;;;;;6.00;5.50;;;27.70;99.90;;;;;;1894006;75;21059;-87
2022/07/20 01:47:31;;;;;;;6.17;5.53;;;27.70;99.90;;;;;;1893108;75;21120;-87
2022/07/20 01:50:23;;;;;;;5.50;5.00;;;27.60;99.90;;;;;;1855192;76;21198;-87
2022/07/20 01:53:15;;;;;;;8.45;5.67;;;27.60;99.90;;;;;;1852397;76;21088;-87
2022/07/20 01:56:07;;;;;;;6.67;5.45;;;27.50;99.90;;;;;;1875737;76;21078;-88
2022/07/20 01:58:58;;;;;;;6.25;5.70;;;27.50;99.90;;;;;;1891581;75;21044;-89
2022/07/20 02:01:50;;;;;;;7.90;5.20;;;27.40;99.90;;;;;;1904949;75;21106;-88
2022/07/20 02:04:41;;;;;;;6.40;5.70;;;27.40;99.90;;;;;;1896056;75;21064;-88
2022/07/20 02:07:33;;;;;;;6.30;5.53;;;27.40;99.90;;;;;;1884811;75;21057;-88
2022/07/20 02:10:25;;;;;;;5.87;5.28;;;27.30;99.90;;;;;;1886871;75;21175;-88
2022/07/20 02:13:16;;;;;;;5.70;5.17;;;27.40;99.90;;;;;;1890671;75;21134;-88
2022/07/20 02:16:17;;;;;;;6.78;5.42;;;27.40;99.90;;;;;;1892602;75;21059;-88
2022/07/20 02:19:09;;;;;;;6.40;5.90;;;27.40;99.90;;;;;;1896800;75;21100;-88
2022/07/20 02:22:00;;;;;;;6.17;5.67;;;27.40;99.90;;;;;;1878373;75;21048;-88
2022/07/20 02:24:55;;;;;;;6.17;5.58;;;27.50;99.90;;;;;;1887224;75;21359;-88
2022/07/20 02:27:46;;;;;;;5.95;5.45;;;27.40;99.90;;;;;;1890245;75;21095;-88
2022/07/20 02:30:38;;;;;;;5.90;5.35;;;27.40;99.90;;;;;;1877102;75;21073;-88
2022/07/20 02:33:30;;;;;;;6.65;5.50;;;27.20;99.90;;;;;;1880979;74;21175;-88
2022/07/20 02:36:21;;;;;;;5.85;5.20;;;27.20;99.90;;;;;;1882016;74;21099;-88
2022/07/20 02:39:13;;;;;;;5.85;5.28;;;27.10;99.90;;;;;;1900503;73;21156;-88
2022/07/20 02:42:12;;;;;;;6.65;5.53;;;27.10;99.90;;;;;;1872629;75;21163;-87
2022/07/20 02:45:05;;;;;;;6.92;5.55;;;27.00;99.90;;;;;;1899550;75;21339;-88
2022/07/20 02:48:02;;;;;;;9.95;5.78;;;27.00;99.90;;;;;;1887259;75;21114;-87
2022/07/20 02:50:49;;;;;;;6.33;5.50;;;26.90;99.90;;;;;;1892869;75;21055;-87
2022/07/20 02:53:41;;;;;;;7.70;6.05;;;26.70;99.90;;;;;;1892248;75;21129;-87
2022/07/20 02:56:32;;;;;;;8.10;5.55;;;26.60;99.90;;;;;;1877674;75;21071;-87
2022/07/20 02:59:24;;;;;;;6.50;5.67;;;26.60;99.90;;;;;;1900451;75;21122;-86
2022/07/20 03:02:15;;;;;;;6.37;5.55;;;26.70;99.90;;;;;;1877737;75;21183;-87
2022/07/20 03:05:09;;;;;;;5.87;5.37;;;26.80;99.90;;;;;;1885738;75;21152;-87
2022/07/20 03:08:00;;;;;;;6.10;5.50;;;26.80;99.90;;;;;;1890778;75;21051;-87
2022/07/20 03:10:52;;;;;;;6.10;5.60;;;26.80;99.90;;;;;;1882503;75;21072;-87
2022/07/20 03:13:43;;;;;;;6.75;5.45;;;26.80;99.90;;;;;;1902892;74;21098;-87
2022/07/20 03:16:35;;;;;;;6.10;5.60;;;26.70;99.90;;;;;;1889612;74;21114;-87
2022/07/20 03:19:27;;;;;;;6.70;6.00;;;26.60;99.90;;;;;;1890820;75;21064;-87
2022/07/20 03:22:19;;;;;;;6.33;5.78;;;26.60;99.90;;;;;;1885385;75;21201;-87
2022/07/20 03:25:11;;;;;;;7.58;5.65;;;26.60;99.90;;;;;;1901028;75;21506;-87
2022/07/20 03:28:03;;;;;;;6.47;5.87;;;26.50;99.90;;;;;;1898500;75;21044;-87
2022/07/20 03:30:55;;;;;;;6.75;6.15;;;26.60;99.90;;;;;;1889999;75;21147;-87
2022/07/20 03:33:46;;;;;;;7.33;5.33;;;26.60;99.90;;;;;;1882816;74;21205;-88
2022/07/20 03:36:39;;;;;;;6.67;5.90;;;26.60;99.90;;;;;;1911155;74;21129;-87
2022/07/20 03:39:30;;;;;;;6.08;5.55;;;26.70;99.90;;;;;;1825580;78;21579;-87
2022/07/20 03:42:22;;;;;;;6.45;5.90;;;26.70;99.90;;;;;;1892483;75;21118;-87
2022/07/20 03:45:13;;;;;;;6.08;5.58;;;26.70;99.90;;;;;;1887430;75;21102;-87
2022/07/20 03:48:09;;;;;;;7.05;5.70;;;26.70;99.90;;;;;;1892744;75;21133;-87
2022/07/20 03:51:00;;;;;;;7.33;5.65;;;26.60;99.90;;;;;;1886346;75;21108;-88
2022/07/20 03:53:52;;;;;;;6.53;5.87;;;26.70;99.90;;;;;;1907963;75;21080;-87
2022/07/20 03:56:43;;;;;;;6.47;5.85;;;26.70;99.90;;;;;;1889228;75;21106;-88
2022/07/20 03:59:35;;;;;;;6.12;5.28;;;26.70;99.90;;;;;;1878593;75;21182;-88
2022/07/20 04:02:27;;;;;;;6.60;6.00;;;26.70;99.90;;;;;;1898138;75;21098;-88
2022/07/20 04:05:19;;;;;;;7.15;5.47;;;26.70;99.90;;;;;;1891980;75;21079;-88
2022/07/20 04:08:11;;;;;;;6.92;5.53;;;26.60;99.90;;;;;;1891819;75;21153;-88
2022/07/20 04:11:02;;;;;;;6.08;5.47;;;26.60;99.90;;;;;;1881567;75;21133;-87
2022/07/20 04:13:55;;;;;;;8.93;5.72;;;26.70;99.90;;;;;;1883267;75;21176;-87
2022/07/20 04:16:46;;;;;;;6.20;5.70;;;26.60;99.90;;;;;;1885086;74;21079;-87
2022/07/20 04:19:38;;;;;;;9.03;6.33;;;26.70;99.90;;;;;;1877706;75;21106;-87
2022/07/20 04:22:29;;;;;;;7.15;6.47;;;26.60;99.90;;;;;;1879443;75;21075;-87
2022/07/20 04:25:22;;;;;;;7.12;6.40;;;26.50;99.90;;;;;;1894242;75;21125;-87
2022/07/20 04:28:14;;;;;;;7.08;6.15;;;26.40;99.90;;;;;;1893735;75;21216;-88
2022/07/20 04:31:05;;;;;;;6.62;5.62;;;26.40;99.90;;;;;;1872832;75;21225;-87
2022/07/20 04:33:57;;;;;;;6.87;6.28;;;26.50;99.90;;;;;;1914779;74;21374;-87
2022/07/20 04:36:50;;;;;;;8.28;6.03;;;26.60;99.90;;;;;;1877946;74;21168;-87
2022/07/20 04:39:41;;;;;;;6.35;5.75;;;26.70;99.90;;;;;;1871844;75;21149;-87
2022/07/20 04:42:33;;;;;;;7.00;6.05;;;26.70;99.90;;;;;;1903382;75;21153;-88
2022/07/20 04:45:25;;;;;;;6.12;5.62;;;26.80;99.90;;;;;;1886315;75;21178;-88
2022/07/20 04:48:16;;;;;;;7.03;6.17;;;26.90;99.90;;;;;;1879551;75;21094;-88
2022/07/20 04:51:08;;;;;;;9.95;7.08;;;26.90;99.90;;;;;;1881324;75;21099;-88
2022/07/20 04:53:59;;;;;;;17.52;8.20;;;26.90;99.90;;;;;;1874502;74;21537;-88
2022/07/20 04:56:51;;;;;;;8.35;6.45;;;26.80;99.90;;;;;;1888625;75;21119;-88
2022/07/20 04:59:42;;;;;;;10.25;6.90;;;26.90;99.90;;;;;;1893490;75;21836;-88
2022/07/20 05:02:34;;;;;;;9.05;6.47;;;26.90;99.90;;;;;;1877162;74;21102;-88
2022/07/20 05:05:27;;;;;;;6.97;6.30;;;27.00;99.90;;;;;;1897082;74;21075;-88
2022/07/20 05:08:20;;;;;;;9.63;6.92;;;27.00;99.90;;;;;;1888346;75;21193;-88
2022/07/20 05:11:11;;;;;;;9.00;6.37;;;27.10;99.90;;;;;;1883608;75;21070;-88
2022/07/20 05:14:02;;;;;;;7.30;6.60;;;27.10;99.90;;;;;;1898688;75;21096;-88
2022/07/20 05:16:56;;;;;;;9.98;6.85;;;27.20;99.90;;;;;;1883193;76;21203;-88
2022/07/20 05:19:47;;;;;;;7.10;6.40;;;27.10;99.90;;;;;;1912420;74;21058;-88
2022/07/20 05:22:39;;;;;;;7.08;6.37;;;27.10;99.90;;;;;;1917817;74;21098;-87
2022/07/20 05:25:30;;;;;;;7.22;6.53;;;27.10;99.90;;;;;;1907918;73;21425;-87
2022/07/20 05:28:22;;;;;;;8.30;6.40;;;27.10;99.90;;;;;;1907681;73;21977;-87
2022/07/20 05:31:15;;;;;;;8.08;6.62;;;27.10;99.90;;;;;;1889499;74;21110;-86
2022/07/20 05:34:06;;;;;;;7.72;6.90;;;27.20;99.90;;;;;;1885988;75;21110;-86
2022/07/20 05:36:58;;;;;;;7.80;6.70;;;27.30;99.90;;;;;;1918806;74;21509;-85
2022/07/20 05:39:49;;;;;;;9.70;6.85;;;27.20;99.90;;;;;;1895648;75;21130;-86
2022/07/20 05:42:41;;;;;;;10.00;6.62;;;27.20;99.90;;;;;;1879983;75;21148;-85
2022/07/20 05:45:32;;;;;;;8.03;6.67;;;27.30;99.90;;;;;;1881831;75;21071;-86
2022/07/20 05:48:24;;;;;;;9.23;7.53;;;27.40;99.90;;;;;;1894164;75;21133;-87
2022/07/20 05:51:15;;;;;;;9.85;7.03;;;27.40;99.90;;;;;;1876574;75;21110;-87
2022/07/20 05:54:08;;;;;;;8.25;7.08;;;27.30;99.90;;;;;;1872709;75;21118;-87
2022/07/20 05:57:00;;;;;;;7.80;7.00;;;27.40;99.90;;;;;;1887299;75;21103;-86
2022/07/20 05:59:55;;;;;;;8.20;6.70;;;27.40;99.90;;;;;;1884624;75;21154;-87
2022/07/20 06:02:47;;;;;;;7.92;6.75;;;27.40;99.90;;;;;;1893670;75;21071;-87
2022/07/20 06:05:39;;;;;;;9.65;6.80;;;27.50;99.90;;;;;;1895077;75;21613;-84
2022/07/20 06:08:30;;;;;;;10.78;7.92;;;27.40;99.90;;;;;;1885790;75;21125;-86
2022/07/20 06:11:21;;;;;;;8.93;7.37;;;27.40;99.90;;;;;;1886574;74;21207;-87
2022/07/20 06:14:13;;;;;;;8.65;6.97;;;27.50;99.90;;;;;;1883293;74;21146;-87
2022/07/20 06:17:12;;;;;;;9.23;7.28;;;27.70;99.90;;;;;;1888788;74;21193;-87
2022/07/20 06:19:59;;;;;;;7.90;7.05;;;27.70;99.90;;;;;;1893358;74;21128;-88
2022/07/20 06:22:52;;;;;;;9.15;6.95;;;27.80;99.90;;;;;;1888256;75;21098;-88
2022/07/20 06:25:44;;;;;;;7.83;7.03;;;27.80;99.90;;;;;;1879139;75;21098;-87
2022/07/20 06:28:37;;;;;;;8.95;7.50;;;27.80;99.90;;;;;;1897953;75;21094;-86
2022/07/20 06:31:28;;;;;;;8.23;7.42;;;27.90;99.90;;;;;;1874010;75;21227;-83
2022/07/20 06:34:21;;;;;;;8.63;7.33;;;27.90;99.90;;;;;;1894694;75;21110;-83
2022/07/20 06:37:13;;;;;;;8.73;7.55;;;27.90;99.90;;;;;;1882971;75;21198;-91
2022/07/20 06:40:06;;;;;;;8.95;7.58;;;27.90;99.90;;;;;;1882748;75;21163;-86
2022/07/20 06:42:57;;;;;;;8.23;7.35;;;28.00;99.90;;;;;;1888751;75;21052;-84
2022/07/20 06:45:50;;;;;;;14.47;7.65;;;28.00;99.90;;;;;;1884132;75;21098;-84
2022/07/20 06:48:41;;;;;;;8.38;7.47;;;28.00;99.90;;;;;;1882516;75;21156;-84
2022/07/20 06:51:33;;;;;;;11.45;9.33;;;28.10;99.90;;;;;;1882519;75;21133;-84
2022/07/20 06:54:24;;;;;;;8.43;7.58;;;28.10;99.90;;;;;;1877948;75;21056;-84
2022/07/20 06:57:16;;;;;;;10.43;7.67;;;28.20;99.90;;;;;;1872229;75;21082;-84
2022/07/20 07:00:12;;;;;;;10.03;7.58;;;28.20;99.90;;;;;;1889277;75;21059;-84
2022/07/20 07:03:04;;;;;;;8.68;7.70;;;28.10;99.90;;;;;;1872712;77;21118;-84
2022/07/20 07:05:56;;;;;;;8.55;7.72;;;28.20;99.90;;;;;;1893915;75;21069;-84
2022/07/20 07:08:47;;;;;;;10.78;7.95;;;28.20;99.90;;;;;;1890787;75;21043;-84
2022/07/20 07:11:40;;;;;;;8.35;7.60;;;28.30;99.90;;;;;;1868686;77;21063;-84
2022/07/20 07:14:31;;;;;;;8.60;7.37;;;28.40;99.90;;;;;;1886621;75;21161;-84
2022/07/20 07:17:22;;;;;;;7.80;7.12;;;28.50;99.90;;;;;;1872471;77;21490;-84
2022/07/20 07:20:14;;;;;;;9.10;7.25;;;28.50;99.90;;;;;;1894218;75;21127;-84
2022/07/20 07:23:06;;;;;;;10.48;6.87;;;28.50;99.90;;;;;;1894088;75;21063;-83
2022/07/20 07:25:58;;;;;;;8.18;7.35;;;28.60;99.90;;;;;;1889791;75;21245;-83
2022/07/20 07:28:50;;;;;;;8.58;7.72;;;28.70;99.90;;;;;;1884568;75;21047;-84
2022/07/20 07:31:42;;;;;;;9.85;7.22;;;28.70;99.90;;;;;;1876164;75;21498;-83
2022/07/20 07:34:35;;;;;;;10.58;7.53;;;28.80;99.90;;;;;;1894416;75;21133;-84
2022/07/20 07:37:27;;;;;;;8.50;7.55;;;28.80;99.90;;;;;;1890623;75;21139;-84
2022/07/20 07:40:18;;;;;;;9.28;8.35;;;28.90;99.90;;;;;;1885506;75;21060;-84
2022/07/20 07:43:10;;;;;;;7.60;6.70;;;28.90;99.90;;;;;;1882992;75;21063;-84
2022/07/20 07:46:02;;;;;;;9.48;7.60;;;29.00;99.90;;;;;;1879972;75;21100;-85
2022/07/20 07:48:54;;;;;;;7.85;7.15;;;29.10;99.90;;;;;;1891844;75;21164;-84
2022/07/20 07:51:45;;;;;;;9.38;7.10;;;29.10;99.90;;;;;;1887045;75;21356;-85
2022/07/20 07:54:36;;;;;;;11.03;7.50;;;29.10;99.90;;;;;;1882781;75;21138;-85
2022/07/20 07:57:28;;;;;;;10.90;7.55;;;29.20;99.90;;;;;;1882894;75;21087;-84
2022/07/20 08:00:20;;;;;;;7.92;7.15;;;29.20;99.90;;;;;;1884171;75;21071;-84
2022/07/20 08:03:12;;;;;;;7.47;6.67;;;29.30;99.90;;;;;;1872552;76;21062;-84
2022/07/20 08:06:04;;;;;;;9.98;7.03;;;29.40;99.90;;;;;;1893940;75;21140;-84
2022/07/20 08:09:00;;;;;;;9.03;7.22;;;29.50;99.90;;;;;;1894134;75;21065;-85
2022/07/20 08:11:52;;;;;;;8.63;7.33;;;29.50;99.90;;;;;;1874786;75;21136;-85
2022/07/20 08:14:54;;;;;;;10.30;6.92;;;29.60;99.90;;;;;;1892638;75;21113;-85
2022/07/20 08:17:48;;;;;;;8.28;7.40;;;29.60;99.90;;;;;;1895099;75;21121;-86
2022/07/20 08:20:39;;;;;;;9.05;7.65;;;29.60;99.90;;;;;;1894521;75;21079;-85
2022/07/20 08:23:31;;;;;;;7.92;6.95;;;29.80;99.90;;;;;;1888367;75;21083;-86
2022/07/20 08:26:22;;;;;;;8.43;7.08;;;29.80;99.90;;;;;;1886627;75;21056;-86
2022/07/20 08:29:14;;;;;;;8.20;7.45;;;29.80;99.90;;;;;;1881929;75;21530;-86
2022/07/20 08:32:06;;;;;;;8.35;7.58;;;29.80;99.90;;;;;;1901776;75;21091;-86
2022/07/20 08:34:57;;;;;;;11.63;7.30;;;29.80;99.90;;;;;;1887345;75;21118;-86
2022/07/20 08:37:55;;;;;;;8.43;7.40;;;29.80;99.90;;;;;;1877688;76;21122;-85
2022/07/20 08:40:58;;;;;;;8.43;7.60;;;29.80;99.90;;;;;;1886734;75;21052;-85
2022/07/20 08:43:49;;;;;;;8.33;7.45;;;29.80;99.90;;;;;;1875505;76;21103;-85
2022/07/20 08:46:44;;;;;;;9.85;8.03;;;29.80;99.90;;;;;;1897497;75;21074;-85
2022/07/20 08:49:36;;;;;;;8.48;7.60;;;29.90;99.90;;;;;;1897274;75;21056;-85
2022/07/20 08:52:27;;;;;;;8.75;7.72;;;29.80;99.90;;;;;;1875467;76;21562;-85
2022/07/20 08:55:19;;;;;;;11.18;8.08;;;29.90;99.90;;;;;;1875643;76;21340;-85
2022/07/20 08:58:12;;;;;;;8.88;7.87;;;30.00;99.90;;;;;;1880788;75;21129;-85
2022/07/20 09:01:05;;;;;;;9.33;8.25;;;29.90;99.90;;;;;;1880062;75;21519;-85
2022/07/20 09:04:11;;;;;;;9.85;8.25;;;30.00;99.90;;;;;;1883762;75;21130;-85
2022/07/20 09:07:03;;;;;;;10.48;8.00;;;30.00;99.90;;;;;;1875963;76;21060;-85
2022/07/20 09:10:02;;;;;;;8.60;7.50;;;30.20;99.90;;;;;;1887511;75;21085;-85
2022/07/20 09:13:00;;;;;;;10.23;7.58;;;30.20;99.90;;;;;;1888916;75;21052;-86
2022/07/20 09:15:54;;;;;;;8.55;7.53;;;30.20;99.90;;;;;;1875684;75;21133;-86
2022/07/20 09:18:50;;;;;;;10.18;6.60;;;30.20;99.90;;;;;;1896622;75;21069;-76
2022/07/20 09:21:41;;;;;;;8.33;7.28;;;30.30;99.90;;;;;;1875471;75;21133;-76
2022/07/20 09:24:33;;;;;;;10.32;7.00;;;30.30;99.90;;;;;;1905425;73;21143;-76
2022/07/20 09:27:25;;;;;;;7.85;7.05;;;30.30;99.90;;;;;;1890458;75;21051;-75
2022/07/20 09:30:19;;;;;;;9.53;7.25;;;30.40;99.90;;;;;;1883062;75;21121;-75
2022/07/20 09:33:10;;;;;;;12.30;7.55;;;30.30;99.90;;;;;;1900517;75;21129;-76
2022/07/20 09:36:05;;;;;;;7.37;6.78;;;30.40;99.90;;;;;;1876113;76;21111;-77
2022/07/20 09:39:09;;;;;;;7.15;6.40;;;30.50;99.90;;;;;;1900448;75;21090;-76
2022/07/20 09:42:01;;;;;;;7.45;6.83;;;30.60;99.90;;;;;;1901381;75;21121;-75
2022/07/20 09:44:55;;;;;;;7.35;6.65;;;30.70;99.90;;;;;;1887886;75;21501;-75
2022/07/20 09:48:05;;;;;;;;;;;30.80;99.90;;;;;;1893421;75;21153;-75
2022/07/20 09:51:00;;;;;;;8.23;6.55;;;30.80;99.90;;;;;;1893752;75;20120;-75
2022/07/20 09:53:53;;;;;;;7.10;6.50;;;31.00;99.90;;;;;;1886681;75;21103;-75
2022/07/20 09:56:46;;;;;;;7.08;6.55;;;31.20;99.90;;;;;;1898093;75;21086;-75
2022/07/20 09:59:38;;;;;;;7.22;6.30;;;31.10;99.90;;;;;;1910900;75;21115;-76
2022/07/20 10:02:30;;;;;;;7.45;6.42;;;31.20;99.90;;;;;;1893190;75;21491;-76
2022/07/20 10:05:23;;;;;;;6.37;5.87;;;31.40;99.90;;;;;;1889413;75;21056;-76
2022/07/20 10:08:29;;;;;;;7.42;6.72;;;31.50;99.90;;;;;;1846273;76;21059;-75
2022/07/20 10:11:23;;;;;;;7.12;6.28;;;31.70;99.90;;;;;;1906723;75;21511;-75
2022/07/20 10:14:17;;;;;;;7.90;6.22;;;31.70;99.90;;;;;;1897051;75;21048;-75
2022/07/20 10:17:08;;;;;;;7.05;6.33;;;31.90;99.90;;;;;;1892062;75;21144;-76
2022/07/20 10:20:00;;;;;;;6.72;6.12;;;32.10;99.90;;;;;;1886087;75;21064;-77
2022/07/20 10:23:16;;;;;;;9.65;6.25;;;32.20;99.90;;;;;;1906761;75;21184;-77
2022/07/20 10:26:13;;;;;;;7.00;6.40;;;32.20;99.90;;;;;;1884789;75;21059;-76
2022/07/20 10:29:04;;;;;;;6.50;6.10;;;32.30;99.90;;;;;;1896494;75;21072;-76
2022/07/20 10:31:58;;;;;;;6.65;6.05;;;32.50;99.20;;;;;;1872358;76;21063;-76
2022/07/20 10:34:54;;;;;;;6.72;6.08;;;32.60;99.10;;;;;;1889341;75;21056;-76
2022/07/20 10:37:47;;;;;;;6.08;5.62;;;32.60;98.10;;;;;;1874135;75;21044;-76
2022/07/20 10:41:31;;;;;;;6.42;5.67;;;32.70;97.70;;;;;;1886962;75;21573;-86
2022/07/20 10:43:34;;;;;;;7.05;5.55;;;32.80;97.40;;;;;;1889054;75;21613;-84
2022/07/20 10:46:36;;;;;;;5.90;5.33;;;32.90;96.80;;;;;;1888152;75;21097;-85
2022/07/20 10:50:03;;;;;;;5.87;5.37;;;33.10;95.80;;;;;;1894958;75;21576;-84
2022/07/20 10:52:57;;;;;;;6.00;5.60;;;33.20;95.80;;;;;;1905277;75;21115;-85
2022/07/20 10:55:58;;;;;;;5.75;5.25;;;33.20;94.60;;;;;;1889349;75;21127;-85
2022/07/20 10:58:51;;;;;;;6.78;5.25;;;33.20;93.60;;;;;;1888651;75;21168;-84
2022/07/20 11:01:47;;;;;;;5.72;5.22;;;33.30;93.90;;;;;;1886334;75;21612;-85
2022/07/20 11:04:44;;;;;;;6.22;5.67;;;33.30;93.90;;;;;;1886227;75;21144;-84
2022/07/20 11:10:24;;;;;;;5.60;5.10;;;33.40;93.10;;;;;;1955521;72;22245;-84
2022/07/20 11:13:18;;;;;;;6.35;5.53;;;33.50;92.70;;;;;;1931494;73;21113;-84
2022/07/20 11:16:09;;;;;;;6.92;5.80;;;33.50;93.10;;;;;;1920051;73;21092;-85
2022/07/20 11:19:03;;;;;;;10.20;6.53;;;33.50;93.10;;;;;;1921197;73;21126;-85
2022/07/20 11:21:55;;;;;;;6.20;5.60;;;33.60;93.40;;;;;;1929796;73;21084;-85
2022/07/20 11:24:55;;;;;;;7.20;5.30;;;33.60;93.40;;;;;;1917858;75;21200;-76
2022/07/20 11:28:00;;;;;;;8.13;5.25;;;33.70;93.10;;;;;;1917545;75;21058;-76
2022/07/20 11:30:53;;;;;;;5.95;5.37;;;33.70;92.70;;;;;;1917756;75;21667;-76
2022/07/20 11:33:47;;;;;;;5.95;5.45;;;33.90;91.60;;;;;;1917585;75;21062;-76
2022/07/20 11:36:39;;;;;;;7.70;4.90;;;33.90;92.20;;;;;;1917772;75;21113;-76
2022/07/20 11:39:31;;;;;;;9.15;5.87;;;34.00;91.20;;;;;;1917239;75;21561;-77
2022/07/20 11:42:23;;;;;;;5.78;5.20;;;34.00;92.40;;;;;;1929896;73;21035;-84
2022/07/20 11:45:15;;;;;;;7.45;6.10;;;34.00;92.20;;;;;;1928621;73;21588;-83
2022/07/20 11:48:19;;;;;;;6.25;5.75;;;34.10;92.20;;;;;;1909115;73;21150;-83
2022/07/20 11:51:12;;;;;;;6.15;5.58;;;33.90;92.40;;;;;;1949426;73;21597;-82
2022/07/20 11:54:06;;;;;;;6.30;5.25;;;33.80;92.40;;;;;;1939853;73;21171;-81
2022/07/20 11:56:57;;;;;;;5.47;5.08;;;33.90;92.00;;;;;;1944207;73;21088;-82
2022/07/20 11:59:50;;;;;;;6.05;5.45;;;34.00;92.10;;;;;;1923667;73;21117;-81
2022/07/20 12:02:42;;;;;;;5.90;5.40;;;34.00;92.20;;;;;;1923448;72;21575;-82
2022/07/20 12:05:35;;;;;;;5.70;5.22;;;34.00;91.80;;;;;;1931620;73;21170;-81
2022/07/20 12:08:27;;;;;;;9.65;5.85;;;34.10;91.40;;;;;;1936390;73;21059;-82
2022/07/20 12:11:18;;;;;;;7.25;5.60;;;34.30;91.40;;;;;;1925679;73;21110;-82
2022/07/20 12:14:10;;;;;;;5.53;5.12;;;34.30;90.80;;;;;;1924949;73;21114;-82
2022/07/20 12:17:15;;;;;;;6.72;5.12;;;34.30;89.10;;;;;;1916732;75;21123;-83
2022/07/20 12:20:09;;;;;;;5.90;5.40;;;34.40;89.90;;;;;;1934509;73;21235;-82
2022/07/20 12:23:02;;;;;;;7.37;5.40;;;34.50;90.30;;;;;;1930043;73;21091;-82
2022/07/20 12:25:54;;;;;;;7.17;5.65;;;34.50;90.50;;;;;;1950289;73;21027;-83
2022/07/20 12:28:45;;;;;;;5.72;5.28;;;34.70;90.70;;;;;;1927923;73;21498;-81
2022/07/20 12:31:39;;;;;;;7.00;5.70;;;34.60;90.40;;;;;;1930897;73;21146;-82
2022/07/20 12:34:32;;;;;;;6.35;5.75;;;34.50;91.00;;;;;;1931460;73;21602;-81
2022/07/20 12:37:24;;;;;;;6.92;5.42;;;34.50;90.80;;;;;;1918822;73;21168;-82
2022/07/20 12:40:31;;;;;;;8.50;5.78;;;34.40;91.40;;;;;;1939738;73;21580;-82
2022/07/20 12:43:33;;;;;;;8.40;5.58;;;34.70;90.90;;;;;;1939891;73;21055;-81
2022/07/20 12:46:26;;;;;;;6.58;6.05;;;34.80;90.60;;;;;;1917350;75;21109;-82
2022/07/20 12:49:21;;;;;;;6.95;6.03;;;34.70;91.20;;;;;;1934432;73;21047;-81
2022/07/20 12:52:13;;;;;;;6.70;5.72;;;34.60;91.50;;;;;;1916843;75;21103;-81
2022/07/20 12:55:06;;;;;;;7.20;6.50;;;34.60;91.60;;;;;;1939241;73;21136;-82
2022/07/20 12:57:57;;;;;;;8.35;6.22;;;34.40;91.40;;;;;;1939895;73;21122;-81
2022/07/20 13:00:49;;;;;;;6.55;5.95;;;34.20;92.30;;;;;;1916999;73;21053;-81
2022/07/20 13:03:41;;;;;;;6.75;6.15;;;34.10;92.20;;;;;;1931668;73;21451;-82
2022/07/20 13:06:34;;;;;;;6.60;6.05;;;34.00;92.20;;;;;;1918490;73;21591;-83
2022/07/20 13:09:26;;;;;;;6.90;6.30;;;34.00;91.60;;;;;;1916751;74;21053;-81
2022/07/20 13:12:18;;;;;;;6.58;6.00;;;33.80;91.80;;;;;;1938042;73;21158;-75
2022/07/20 13:15:11;;;;;;;6.87;6.37;;;33.90;92.20;;;;;;1934684;73;21153;-74
2022/07/20 13:18:03;;;;;;;6.70;6.08;;;34.00;92.00;;;;;;1927967;73;21161;-75
2022/07/20 13:20:54;;;;;;;6.33;5.83;;;34.10;91.60;;;;;;1927901;73;21090;-75
2022/07/20 13:23:46;;;;;;;6.67;6.08;;;34.20;91.70;;;;;;1950686;73;21680;-75
2022/07/20 13:26:37;;;;;;;7.00;6.30;;;34.20;91.80;;;;;;1933915;73;21091;-76
2022/07/20 13:29:29;;;;;;;6.60;6.00;;;34.20;91.80;;;;;;1929036;73;21520;-75
2022/07/20 13:32:20;;;;;;;6.92;6.33;;;34.10;92.00;;;;;;1928292;73;21114;-75
2022/07/20 13:35:13;;;;;;;6.53;6.03;;;33.50;93.90;;;;;;1926400;73;21118;-75
2022/07/20 13:38:04;;;;;;;8.03;6.20;;;33.50;94.00;;;;;;1916807;75;21046;-75
2022/07/20 13:40:56;;;;;;;6.70;6.15;;;33.50;93.80;;;;;;1916816;73;21108;-75
2022/07/20 13:43:47;;;;;;;11.12;6.30;;;33.50;93.30;;;;;;1917066;73;21047;-75
2022/07/20 13:46:39;;;;;;;6.62;6.00;;;33.50;93.40;;;;;;1939563;73;21051;-75
2022/07/20 13:49:31;;;;;;;6.97;6.12;;;33.70;92.40;;;;;;1937721;73;21094;-75
2022/07/20 13:52:23;;;;;;;6.75;6.12;;;33.70;92.40;;;;;;1934864;73;21106;-75
2022/07/20 13:55:16;;;;;;;6.53;5.83;;;33.80;92.50;;;;;;1949806;73;21113;-75
2022/07/20 13:58:09;;;;;;;6.95;6.08;;;33.90;92.10;;;;;;1927918;73;21036;-76
2022/07/20 14:01:00;;;;;;;6.33;5.85;;;33.90;92.20;;;;;;1950363;73;21173;-76
2022/07/20 14:03:52;;;;;;;6.42;5.90;;;33.90;91.80;;;;;;1933971;73;21113;-75
2022/07/20 14:06:44;;;;;;;6.67;6.08;;;34.00;91.70;;;;;;1927831;73;21091;-75
2022/07/20 14:09:35;;;;;;;7.03;6.25;;;34.00;91.60;;;;;;1928124;73;21160;-75
2022/07/20 14:12:27;;;;;;;7.28;5.80;;;34.00;91.30;;;;;;1935246;73;21184;-75
2022/07/20 14:15:18;;;;;;;7.70;6.15;;;34.10;91.00;;;;;;1942972;73;21140;-76
2022/07/20 14:18:11;;;;;;;6.62;5.58;;;34.20;90.70;;;;;;1939158;73;21121;-76
2022/07/20 14:21:03;;;;;;;6.30;5.70;;;34.30;90.50;;;;;;1937850;73;21083;-75
2022/07/20 14:23:56;;;;;;;6.42;5.92;;;34.40;90.20;;;;;;1935168;73;21322;-75
2022/07/20 14:26:48;;;;;;;6.55;5.80;;;34.50;88.50;;;;;;1926484;74;21050;-82
2022/07/20 14:29:39;;;;;;;6.28;5.67;;;34.60;88.70;;;;;;1941345;73;21095;-82
2022/07/20 14:32:31;;;;;;;6.28;5.78;;;34.80;88.30;;;;;;1938054;73;21120;-82
2022/07/20 14:35:22;;;;;;;5.83;5.20;;;34.90;89.20;;;;;;1937944;73;21113;-81
2022/07/20 14:38:13;;;;;;;5.37;4.87;;;35.10;87.10;;;;;;1938860;73;21068;-81
2022/07/20 14:41:05;;;;;;;6.20;5.25;;;35.20;86.30;;;;;;1943111;73;21024;-82
2022/07/20 14:43:58;;;;;;;10.45;4.92;;;35.10;85.90;;;;;;1949414;73;21125;-82
2022/07/20 14:46:50;;;;;;;4.75;4.35;;;35.40;84.50;;;;;;1955423;73;21102;-82
2022/07/20 14:49:41;;;;;;;5.00;4.55;;;35.30;81.90;;;;;;1937798;73;21058;-82
2022/07/20 14:52:33;;;;;;;9.35;4.67;;;35.00;82.70;;;;;;1942185;73;21131;-82
2022/07/20 14:55:25;;;;;;;5.42;4.83;;;35.20;84.20;;;;;;1926536;74;21047;-82
2022/07/20 14:58:17;;;;;;;4.17;3.72;;;35.10;85.40;;;;;;1949559;73;21097;-82
2022/07/20 15:01:08;;;;;;;4.85;3.70;;;35.00;80.50;;;;;;1949310;73;21105;-81
2022/07/20 15:04:00;;;;;;;4.72;3.70;;;34.90;78.50;;;;;;1946849;73;21145;-82